SWA1713 KTUL-KDEN
Flight info
| Callsign | SWA1713 |
|---|---|
| Flight time | N/A |
| Altitude | 36000 |
| Route | FRAKS GCK KIISS CLASH5 |
| Aircraft | B38M/M-SADE2E3GHIJ4J7P2RWZ/LB1D1 |
Departure
| Time | 2026-05-08 18:08 |
|---|---|
| Airport | Tulsa International Airport (KTUL) |
Arrival
| Time | N/A |
|---|---|
| Airport | Denver International Airport (KDEN) |
| Time | Latitude | Longitude | Altitude | Speed | Heading |
|---|---|---|---|---|---|
| 2026-05-08 17:44 | 36.19224 | -95.89001 | 665 ft | 0 kts | 155° |
| 2026-05-08 17:57 | 36.19228 | -95.89003 | 666 ft | 3 kts | 155° |
| 2026-05-08 17:57 | 36.19246 | -95.89014 | 663 ft | 3 kts | 155° |
| 2026-05-08 17:58 | 36.19260 | -95.89031 | 664 ft | 3 kts | 85° |
| 2026-05-08 17:58 | 36.19253 | -95.89049 | 663 ft | 0 kts | 37° |
| 2026-05-08 18:01 | 36.19256 | -95.89047 | 702 ft | 2 kts | 33° |
| 2026-05-08 18:01 | 36.19300 | -95.89008 | 666 ft | 14 kts | 36° |
| 2026-05-08 18:02 | 36.19402 | -95.88915 | 666 ft | 20 kts | 32° |
| 2026-05-08 18:02 | 36.19441 | -95.88816 | 667 ft | 20 kts | 81° |
| 2026-05-08 18:02 | 36.19448 | -95.88621 | 667 ft | 0 kts | 83° |
| 2026-05-08 18:03 | 36.19448 | -95.88618 | 667 ft | 2 kts | 83° |
| 2026-05-08 18:03 | 36.19485 | -95.88584 | 667 ft | 13 kts | 9° |
| 2026-05-08 18:03 | 36.19613 | -95.88587 | 668 ft | 24 kts | 358° |
| 2026-05-08 18:04 | 36.19781 | -95.88572 | 667 ft | 24 kts | 14° |
| 2026-05-08 18:04 | 36.19933 | -95.88509 | 666 ft | 23 kts | 19° |
| 2026-05-08 18:04 | 36.20081 | -95.88448 | 666 ft | 22 kts | 20° |
| 2026-05-08 18:04 | 36.20224 | -95.88387 | 666 ft | 21 kts | 15° |
| 2026-05-08 18:05 | 36.20369 | -95.88366 | 666 ft | 21 kts | 5° |
| 2026-05-08 18:05 | 36.20512 | -95.88364 | 666 ft | 20 kts | 5° |
| 2026-05-08 18:05 | 36.20650 | -95.88350 | 666 ft | 20 kts | 5° |
| 2026-05-08 18:05 | 36.20783 | -95.88345 | 666 ft | 19 kts | 1° |
| 2026-05-08 18:06 | 36.20913 | -95.88337 | 666 ft | 18 kts | 4° |
| 2026-05-08 18:06 | 36.21038 | -95.88327 | 666 ft | 18 kts | 4° |
| 2026-05-08 18:06 | 36.21159 | -95.88321 | 666 ft | 17 kts | 0° |
| 2026-05-08 18:06 | 36.21275 | -95.88316 | 666 ft | 16 kts | 3° |
| 2026-05-08 18:07 | 36.21381 | -95.88286 | 666 ft | 16 kts | 50° |
| 2026-05-08 18:07 | 36.21382 | -95.88157 | 667 ft | 15 kts | 119° |
| 2026-05-08 18:07 | 36.21264 | -95.88138 | 668 ft | 35 kts | 184° |
| 2026-05-08 18:07 | 36.20760 | -95.88174 | 668 ft | 108 kts | 183° |
| 2026-05-08 18:08 | 36.19795 | -95.88245 | 731 ft | 164 kts | 182° |
| 2026-05-08 18:08 | 36.18567 | -95.88267 | 1405 ft | 183 kts | 182° |
| 2026-05-08 18:08 | 36.17306 | -95.88537 | 2257 ft | 181 kts | 210° |
| 2026-05-08 18:08 | 36.16417 | -95.89536 | 3289 ft | 175 kts | 233° |
| 2026-05-08 18:09 | 36.15959 | -95.91010 | 3625 ft | 202 kts | 262° |
| 2026-05-08 18:09 | 36.16229 | -95.92844 | 3849 ft | 233 kts | 293° |
| 2026-05-08 18:09 | 36.17261 | -95.94451 | 4309 ft | 246 kts | 316° |
| 2026-05-08 18:09 | 36.18672 | -95.95616 | 4959 ft | 247 kts | 324° |
| 2026-05-08 18:10 | 36.20154 | -95.96735 | 5517 ft | 251 kts | 324° |
| 2026-05-08 18:10 | 36.21636 | -95.97850 | 6213 ft | 247 kts | 324° |
| 2026-05-08 18:10 | 36.23106 | -95.98965 | 6832 ft | 248 kts | 324° |